sensor_id;sensor_type;location;lat;lon;timestamp;P1;durP1;ratioP1;P2;durP2;ratioP2
76574;SDS011;65439;50.948;6.988;2023-02-15T00:00:06;39.55;;;19.95;;
76574;SDS011;65439;50.948;6.988;2023-02-15T00:02:35;37.17;;;18.15;;
76574;SDS011;65439;50.948;6.988;2023-02-15T00:05:00;34.60;;;18.83;;
76574;SDS011;65439;50.948;6.988;2023-02-15T00:07:26;32.93;;;17.17;;
76574;SDS011;65439;50.948;6.988;2023-02-15T00:09:51;35.83;;;18.00;;
76574;SDS011;65439;50.948;6.988;2023-02-15T00:12:16;31.43;;;16.57;;
76574;SDS011;65439;50.948;6.988;2023-02-15T00:14:42;38.83;;;19.23;;
76574;SDS011;65439;50.948;6.988;2023-02-15T00:17:07;41.25;;;18.92;;
76574;SDS011;65439;50.948;6.988;2023-02-15T00:19:32;36.75;;;17.50;;
76574;SDS011;65439;50.948;6.988;2023-02-15T00:21:58;36.45;;;18.20;;
76574;SDS011;65439;50.948;6.988;2023-02-15T00:24:23;39.97;;;19.63;;
76574;SDS011;65439;50.948;6.988;2023-02-15T00:26:48;33.80;;;17.33;;
76574;SDS011;65439;50.948;6.988;2023-02-15T00:29:14;36.83;;;20.60;;
76574;SDS011;65439;50.948;6.988;2023-02-15T00:31:40;38.97;;;20.65;;
76574;SDS011;65439;50.948;6.988;2023-02-15T00:34:06;39.42;;;18.58;;
76574;SDS011;65439;50.948;6.988;2023-02-15T00:36:40;41.50;;;20.85;;
76574;SDS011;65439;50.948;6.988;2023-02-15T00:39:06;39.83;;;20.30;;
76574;SDS011;65439;50.948;6.988;2023-02-15T00:41:32;38.65;;;19.42;;
76574;SDS011;65439;50.948;6.988;2023-02-15T00:43:57;37.10;;;17.92;;
76574;SDS011;65439;50.948;6.988;2023-02-15T00:46:23;35.38;;;17.98;;
76574;SDS011;65439;50.948;6.988;2023-02-15T00:48:48;38.53;;;19.53;;
76574;SDS011;65439;50.948;6.988;2023-02-15T00:51:14;37.13;;;18.70;;
76574;SDS011;65439;50.948;6.988;2023-02-15T00:53:39;37.87;;;17.57;;
76574;SDS011;65439;50.948;6.988;2023-02-15T00:56:04;37.28;;;18.60;;
76574;SDS011;65439;50.948;6.988;2023-02-15T00:58:30;35.33;;;18.98;;
76574;SDS011;65439;50.948;6.988;2023-02-15T01:01:01;34.75;;;18.27;;
76574;SDS011;65439;50.948;6.988;2023-02-15T01:03:28;35.72;;;18.67;;
76574;SDS011;65439;50.948;6.988;2023-02-15T01:05:53;35.77;;;17.33;;
76574;SDS011;65439;50.948;6.988;2023-02-15T01:08:18;42.60;;;19.63;;
76574;SDS011;65439;50.948;6.988;2023-02-15T01:10:44;37.63;;;19.17;;
76574;SDS011;65439;50.948;6.988;2023-02-15T01:13:11;35.85;;;17.75;;
76574;SDS011;65439;50.948;6.988;2023-02-15T01:15:37;36.63;;;18.03;;
76574;SDS011;65439;50.948;6.988;2023-02-15T01:18:02;37.97;;;18.73;;
76574;SDS011;65439;50.948;6.988;2023-02-15T01:20:28;38.90;;;17.38;;
76574;SDS011;65439;50.948;6.988;2023-02-15T01:22:54;38.78;;;18.27;;
76574;SDS011;65439;50.948;6.988;2023-02-15T01:25:21;34.53;;;17.25;;
76574;SDS011;65439;50.948;6.988;2023-02-15T01:27:47;35.72;;;17.92;;
76574;SDS011;65439;50.948;6.988;2023-02-15T01:30:13;36.85;;;18.63;;
76574;SDS011;65439;50.948;6.988;2023-02-15T01:32:39;40.35;;;19.90;;
76574;SDS011;65439;50.948;6.988;2023-02-15T01:35:05;33.38;;;17.20;;
76574;SDS011;65439;50.948;6.988;2023-02-15T01:37:31;42.80;;;17.85;;
76574;SDS011;65439;50.948;6.988;2023-02-15T01:39:56;35.92;;;18.33;;
76574;SDS011;65439;50.948;6.988;2023-02-15T01:42:22;35.75;;;17.55;;
76574;SDS011;65439;50.948;6.988;2023-02-15T01:47:22;36.47;;;18.50;;
76574;SDS011;65439;50.948;6.988;2023-02-15T01:49:48;34.17;;;17.38;;
76574;SDS011;65439;50.948;6.988;2023-02-15T01:52:22;34.80;;;18.23;;
76574;SDS011;65439;50.948;6.988;2023-02-15T01:54:48;34.10;;;17.43;;
76574;SDS011;65439;50.948;6.988;2023-02-15T01:57:15;35.78;;;18.35;;
76574;SDS011;65439;50.948;6.988;2023-02-15T01:59:43;40.25;;;18.52;;
76574;SDS011;65439;50.948;6.988;2023-02-15T02:02:11;36.10;;;17.02;;
76574;SDS011;65439;50.948;6.988;2023-02-15T02:04:40;39.83;;;19.50;;
76574;SDS011;65439;50.948;6.988;2023-02-15T02:07:06;31.30;;;16.00;;
76574;SDS011;65439;50.948;6.988;2023-02-15T02:09:32;37.83;;;17.33;;
76574;SDS011;65439;50.948;6.988;2023-02-15T02:11:58;37.03;;;18.10;;
76574;SDS011;65439;50.948;6.988;2023-02-15T02:14:23;36.65;;;18.13;;
76574;SDS011;65439;50.948;6.988;2023-02-15T02:22:24;39.42;;;17.13;;
76574;SDS011;65439;50.948;6.988;2023-02-15T02:25:08;36.88;;;17.20;;
76574;SDS011;65439;50.948;6.988;2023-02-15T02:27:49;35.10;;;16.75;;
76574;SDS011;65439;50.948;6.988;2023-02-15T02:36:15;39.78;;;18.00;;
76574;SDS011;65439;50.948;6.988;2023-02-15T02:44:26;32.78;;;17.73;;
76574;SDS011;65439;50.948;6.988;2023-02-15T02:47:01;31.25;;;17.08;;
76574;SDS011;65439;50.948;6.988;2023-02-15T02:49:39;31.48;;;17.73;;
76574;SDS011;65439;50.948;6.988;2023-02-15T02:52:31;31.00;;;15.80;;
76574;SDS011;65439;50.948;6.988;2023-02-15T02:55:24;34.35;;;16.80;;
76574;SDS011;65439;50.948;6.988;2023-02-15T02:57:57;32.10;;;17.10;;
76574;SDS011;65439;50.948;6.988;2023-02-15T03:00:24;40.83;;;17.40;;
76574;SDS011;65439;50.948;6.988;2023-02-15T03:02:52;36.80;;;17.27;;
76574;SDS011;65439;50.948;6.988;2023-02-15T03:05:23;30.83;;;15.82;;
76574;SDS011;65439;50.948;6.988;2023-02-15T03:07:52;32.30;;;15.75;;
76574;SDS011;65439;50.948;6.988;2023-02-15T03:10:18;33.53;;;16.63;;
76574;SDS011;65439;50.948;6.988;2023-02-15T03:12:46;28.92;;;16.75;;
76574;SDS011;65439;50.948;6.988;2023-02-15T03:15:19;33.78;;;17.75;;
76574;SDS011;65439;50.948;6.988;2023-02-15T03:17:51;32.03;;;16.60;;
76574;SDS011;65439;50.948;6.988;2023-02-15T03:20:26;33.28;;;15.43;;
76574;SDS011;65439;50.948;6.988;2023-02-15T03:22:56;35.28;;;15.95;;
76574;SDS011;65439;50.948;6.988;2023-02-15T03:25:27;37.20;;;16.80;;
76574;SDS011;65439;50.948;6.988;2023-02-15T03:28:02;36.35;;;16.63;;
76574;SDS011;65439;50.948;6.988;2023-02-15T03:30:31;28.73;;;14.40;;
76574;SDS011;65439;50.948;6.988;2023-02-15T03:32:57;35.33;;;15.43;;
76574;SDS011;65439;50.948;6.988;2023-02-15T03:35:24;39.70;;;17.00;;
76574;SDS011;65439;50.948;6.988;2023-02-15T03:37:52;35.47;;;17.48;;
76574;SDS011;65439;50.948;6.988;2023-02-15T03:40:26;35.05;;;16.83;;
76574;SDS011;65439;50.948;6.988;2023-02-15T03:45:51;30.73;;;15.02;;
76574;SDS011;65439;50.948;6.988;2023-02-15T03:48:24;31.75;;;15.68;;
76574;SDS011;65439;50.948;6.988;2023-02-15T03:50:53;35.30;;;14.43;;
76574;SDS011;65439;50.948;6.988;2023-02-15T03:53:39;29.40;;;13.57;;
76574;SDS011;65439;50.948;6.988;2023-02-15T03:56:05;35.00;;;17.52;;
76574;SDS011;65439;50.948;6.988;2023-02-15T03:58:30;31.40;;;15.40;;
76574;SDS011;65439;50.948;6.988;2023-02-15T04:01:18;35.35;;;14.88;;
76574;SDS011;65439;50.948;6.988;2023-02-15T04:04:15;24.48;;;14.18;;
76574;SDS011;65439;50.948;6.988;2023-02-15T04:06:43;31.92;;;14.18;;
76574;SDS011;65439;50.948;6.988;2023-02-15T04:09:08;38.23;;;16.53;;
76574;SDS011;65439;50.948;6.988;2023-02-15T04:11:52;35.95;;;16.65;;
76574;SDS011;65439;50.948;6.988;2023-02-15T04:14:18;33.20;;;15.53;;
76574;SDS011;65439;50.948;6.988;2023-02-15T04:17:04;28.90;;;14.95;;
76574;SDS011;65439;50.948;6.988;2023-02-15T04:19:30;35.97;;;16.17;;
76574;SDS011;65439;50.948;6.988;2023-02-15T04:22:14;29.05;;;14.60;;
76574;SDS011;65439;50.948;6.988;2023-02-15T04:24:58;33.08;;;14.65;;
76574;SDS011;65439;50.948;6.988;2023-02-15T04:27:36;33.20;;;16.08;;
76574;SDS011;65439;50.948;6.988;2023-02-15T04:30:02;32.08;;;15.05;;
76574;SDS011;65439;50.948;6.988;2023-02-15T04:32:28;35.65;;;15.43;;
76574;SDS011;65439;50.948;6.988;2023-02-15T04:34:53;34.80;;;15.87;;
76574;SDS011;65439;50.948;6.988;2023-02-15T04:37:18;33.47;;;15.87;;
76574;SDS011;65439;50.948;6.988;2023-02-15T04:39:44;36.58;;;15.15;;
76574;SDS011;65439;50.948;6.988;2023-02-15T04:42:09;34.73;;;16.07;;
76574;SDS011;65439;50.948;6.988;2023-02-15T04:44:34;33.80;;;16.93;;
76574;SDS011;65439;50.948;6.988;2023-02-15T04:46:59;34.77;;;16.87;;
76574;SDS011;65439;50.948;6.988;2023-02-15T04:49:25;28.57;;;14.83;;
76574;SDS011;65439;50.948;6.988;2023-02-15T04:51:51;33.38;;;16.00;;
76574;SDS011;65439;50.948;6.988;2023-02-15T04:54:16;31.27;;;15.13;;
76574;SDS011;65439;50.948;6.988;2023-02-15T04:56:41;32.35;;;16.08;;
76574;SDS011;65439;50.948;6.988;2023-02-15T04:59:09;24.63;;;13.07;;
76574;SDS011;65439;50.948;6.988;2023-02-15T05:01:35;34.08;;;15.40;;
76574;SDS011;65439;50.948;6.988;2023-02-15T05:04:00;35.08;;;16.25;;
76574;SDS011;65439;50.948;6.988;2023-02-15T05:06:26;31.60;;;14.02;;
76574;SDS011;65439;50.948;6.988;2023-02-15T05:08:51;29.23;;;15.30;;
76574;SDS011;65439;50.948;6.988;2023-02-15T05:11:16;35.33;;;16.80;;
76574;SDS011;65439;50.948;6.988;2023-02-15T05:13:42;40.67;;;17.77;;
76574;SDS011;65439;50.948;6.988;2023-02-15T05:16:07;32.83;;;16.53;;
76574;SDS011;65439;50.948;6.988;2023-02-15T05:18:32;31.50;;;16.63;;
76574;SDS011;65439;50.948;6.988;2023-02-15T05:20:58;33.05;;;17.23;;
76574;SDS011;65439;50.948;6.988;2023-02-15T05:23:23;29.17;;;13.87;;
76574;SDS011;65439;50.948;6.988;2023-02-15T05:25:49;28.55;;;15.43;;
76574;SDS011;65439;50.948;6.988;2023-02-15T05:28:34;29.42;;;14.02;;
76574;SDS011;65439;50.948;6.988;2023-02-15T05:31:02;32.65;;;14.70;;
76574;SDS011;65439;50.948;6.988;2023-02-15T05:33:41;28.85;;;12.93;;
76574;SDS011;65439;50.948;6.988;2023-02-15T05:36:07;30.55;;;16.40;;
76574;SDS011;65439;50.948;6.988;2023-02-15T05:38:32;26.92;;;14.10;;
76574;SDS011;65439;50.948;6.988;2023-02-15T05:40:58;35.03;;;15.95;;
76574;SDS011;65439;50.948;6.988;2023-02-15T05:43:24;29.30;;;14.18;;
76574;SDS011;65439;50.948;6.988;2023-02-15T05:45:50;33.35;;;15.25;;
76574;SDS011;65439;50.948;6.988;2023-02-15T05:48:17;31.73;;;15.02;;
76574;SDS011;65439;50.948;6.988;2023-02-15T05:50:43;31.38;;;15.43;;
76574;SDS011;65439;50.948;6.988;2023-02-15T05:53:08;29.85;;;15.63;;
76574;SDS011;65439;50.948;6.988;2023-02-15T05:55:34;35.30;;;17.47;;
76574;SDS011;65439;50.948;6.988;2023-02-15T05:58:02;26.15;;;12.93;;
76574;SDS011;65439;50.948;6.988;2023-02-15T06:00:27;34.33;;;15.03;;
76574;SDS011;65439;50.948;6.988;2023-02-15T06:02:53;36.00;;;15.40;;
76574;SDS011;65439;50.948;6.988;2023-02-15T06:05:18;29.03;;;15.10;;
76574;SDS011;65439;50.948;6.988;2023-02-15T06:07:44;30.10;;;16.53;;
76574;SDS011;65439;50.948;6.988;2023-02-15T06:10:09;32.85;;;15.63;;
76574;SDS011;65439;50.948;6.988;2023-02-15T06:12:35;33.20;;;16.10;;
76574;SDS011;65439;50.948;6.988;2023-02-15T06:15:00;28.90;;;14.77;;
76574;SDS011;65439;50.948;6.988;2023-02-15T06:17:25;29.20;;;14.77;;
76574;SDS011;65439;50.948;6.988;2023-02-15T06:19:51;29.63;;;14.60;;
76574;SDS011;65439;50.948;6.988;2023-02-15T06:22:16;27.80;;;14.73;;
76574;SDS011;65439;50.948;6.988;2023-02-15T06:24:41;27.27;;;13.70;;
76574;SDS011;65439;50.948;6.988;2023-02-15T06:27:07;28.67;;;13.90;;
76574;SDS011;65439;50.948;6.988;2023-02-15T06:29:34;32.80;;;14.02;;
76574;SDS011;65439;50.948;6.988;2023-02-15T06:31:59;30.30;;;14.13;;
76574;SDS011;65439;50.948;6.988;2023-02-15T06:34:25;26.73;;;13.82;;
76574;SDS011;65439;50.948;6.988;2023-02-15T06:36:50;27.43;;;13.70;;
76574;SDS011;65439;50.948;6.988;2023-02-15T06:39:15;24.40;;;13.20;;
76574;SDS011;65439;50.948;6.988;2023-02-15T06:41:41;27.35;;;14.18;;
76574;SDS011;65439;50.948;6.988;2023-02-15T06:44:06;29.42;;;15.32;;
76574;SDS011;65439;50.948;6.988;2023-02-15T06:46:32;28.00;;;14.98;;
76574;SDS011;65439;50.948;6.988;2023-02-15T06:48:57;33.38;;;14.65;;
76574;SDS011;65439;50.948;6.988;2023-02-15T06:51:22;25.93;;;11.70;;
76574;SDS011;65439;50.948;6.988;2023-02-15T06:53:48;28.03;;;14.30;;
76574;SDS011;65439;50.948;6.988;2023-02-15T06:56:13;21.23;;;11.47;;
76574;SDS011;65439;50.948;6.988;2023-02-15T06:58:39;28.87;;;15.33;;
76574;SDS011;65439;50.948;6.988;2023-02-15T07:01:05;24.98;;;13.75;;
76574;SDS011;65439;50.948;6.988;2023-02-15T07:03:30;25.88;;;12.88;;
76574;SDS011;65439;50.948;6.988;2023-02-15T07:05:57;23.73;;;12.02;;
76574;SDS011;65439;50.948;6.988;2023-02-15T07:08:23;28.88;;;14.40;;
76574;SDS011;65439;50.948;6.988;2023-02-15T07:10:49;25.52;;;11.75;;
76574;SDS011;65439;50.948;6.988;2023-02-15T07:13:18;25.88;;;13.02;;
76574;SDS011;65439;50.948;6.988;2023-02-15T07:15:44;26.10;;;14.60;;
76574;SDS011;65439;50.948;6.988;2023-02-15T07:18:10;23.90;;;13.35;;
76574;SDS011;65439;50.948;6.988;2023-02-15T07:20:36;26.30;;;13.60;;
76574;SDS011;65439;50.948;6.988;2023-02-15T07:23:02;26.52;;;13.50;;
76574;SDS011;65439;50.948;6.988;2023-02-15T07:25:28;24.60;;;13.02;;
76574;SDS011;65439;50.948;6.988;2023-02-15T07:27:57;26.27;;;14.43;;
76574;SDS011;65439;50.948;6.988;2023-02-15T07:30:22;26.27;;;12.02;;
76574;SDS011;65439;50.948;6.988;2023-02-15T07:32:48;23.00;;;13.07;;
76574;SDS011;65439;50.948;6.988;2023-02-15T07:35:32;25.58;;;12.95;;
76574;SDS011;65439;50.948;6.988;2023-02-15T07:37:58;23.58;;;11.93;;
76574;SDS011;65439;50.948;6.988;2023-02-15T07:40:23;29.58;;;13.63;;
76574;SDS011;65439;50.948;6.988;2023-02-15T07:42:49;24.92;;;13.75;;
76574;SDS011;65439;50.948;6.988;2023-02-15T07:45:17;20.38;;;11.70;;
76574;SDS011;65439;50.948;6.988;2023-02-15T07:47:42;31.87;;;12.93;;
76574;SDS011;65439;50.948;6.988;2023-02-15T07:50:08;21.67;;;12.93;;
76574;SDS011;65439;50.948;6.988;2023-02-15T07:52:33;20.50;;;12.35;;
76574;SDS011;65439;50.948;6.988;2023-02-15T07:54:58;26.37;;;13.67;;
76574;SDS011;65439;50.948;6.988;2023-02-15T07:57:24;19.47;;;11.50;;
76574;SDS011;65439;50.948;6.988;2023-02-15T07:59:49;27.45;;;12.45;;
76574;SDS011;65439;50.948;6.988;2023-02-15T08:02:14;24.03;;;12.87;;
76574;SDS011;65439;50.948;6.988;2023-02-15T08:04:40;23.80;;;13.00;;
76574;SDS011;65439;50.948;6.988;2023-02-15T08:07:05;24.70;;;12.82;;
76574;SDS011;65439;50.948;6.988;2023-02-15T08:09:31;20.40;;;12.10;;
76574;SDS011;65439;50.948;6.988;2023-02-15T08:11:57;29.05;;;11.23;;
76574;SDS011;65439;50.948;6.988;2023-02-15T08:14:22;23.07;;;10.33;;
76574;SDS011;65439;50.948;6.988;2023-02-15T08:16:48;23.90;;;12.00;;
76574;SDS011;65439;50.948;6.988;2023-02-15T08:19:27;20.88;;;11.52;;
76574;SDS011;65439;50.948;6.988;2023-02-15T08:21:54;26.65;;;12.25;;
76574;SDS011;65439;50.948;6.988;2023-02-15T08:24:22;22.20;;;12.18;;
76574;SDS011;65439;50.948;6.988;2023-02-15T08:26:49;20.80;;;12.75;;
76574;SDS011;65439;50.948;6.988;2023-02-15T08:29:15;18.77;;;10.45;;
76574;SDS011;65439;50.948;6.988;2023-02-15T08:31:42;19.58;;;9.77;;
76574;SDS011;65439;50.948;6.988;2023-02-15T08:34:08;17.80;;;9.85;;
76574;SDS011;65439;50.948;6.988;2023-02-15T08:36:35;19.77;;;9.88;;
76574;SDS011;65439;50.948;6.988;2023-02-15T08:39:02;18.40;;;10.07;;
76574;SDS011;65439;50.948;6.988;2023-02-15T08:41:30;16.45;;;8.45;;
76574;SDS011;65439;50.948;6.988;2023-02-15T08:43:58;18.35;;;10.18;;
76574;SDS011;65439;50.948;6.988;2023-02-15T08:46:24;19.90;;;10.95;;
76574;SDS011;65439;50.948;6.988;2023-02-15T08:48:52;19.35;;;10.85;;
76574;SDS011;65439;50.948;6.988;2023-02-15T08:51:19;15.63;;;9.95;;
76574;SDS011;65439;50.948;6.988;2023-02-15T08:53:47;16.65;;;9.75;;
76574;SDS011;65439;50.948;6.988;2023-02-15T08:56:17;18.13;;;10.82;;
76574;SDS011;65439;50.948;6.988;2023-02-15T08:58:45;21.10;;;10.90;;
76574;SDS011;65439;50.948;6.988;2023-02-15T09:01:12;16.65;;;9.23;;
76574;SDS011;65439;50.948;6.988;2023-02-15T09:03:48;20.73;;;11.18;;
76574;SDS011;65439;50.948;6.988;2023-02-15T09:08:41;20.15;;;10.00;;
76574;SDS011;65439;50.948;6.988;2023-02-15T09:11:10;18.37;;;10.70;;
76574;SDS011;65439;50.948;6.988;2023-02-15T09:13:48;18.20;;;9.98;;
76574;SDS011;65439;50.948;6.988;2023-02-15T09:16:14;18.13;;;10.27;;
76574;SDS011;65439;50.948;6.988;2023-02-15T09:21:17;16.30;;;10.23;;
76574;SDS011;65439;50.948;6.988;2023-02-15T09:23:47;18.55;;;10.98;;
76574;SDS011;65439;50.948;6.988;2023-02-15T09:26:14;16.38;;;10.63;;
76574;SDS011;65439;50.948;6.988;2023-02-15T09:28:42;17.20;;;9.38;;
76574;SDS011;65439;50.948;6.988;2023-02-15T09:33:40;17.05;;;9.88;;
76574;SDS011;65439;50.948;6.988;2023-02-15T09:36:13;20.80;;;10.32;;
76574;SDS011;65439;50.948;6.988;2023-02-15T09:38:45;19.58;;;9.73;;
76574;SDS011;65439;50.948;6.988;2023-02-15T09:47:22;17.30;;;8.85;;
76574;SDS011;65439;50.948;6.988;2023-02-15T09:55:16;16.67;;;9.20;;
76574;SDS011;65439;50.948;6.988;2023-02-15T10:00:33;17.58;;;8.82;;
76574;SDS011;65439;50.948;6.988;2023-02-15T10:12:11;17.65;;;10.48;;
76574;SDS011;65439;50.948;6.988;2023-02-15T10:23:30;18.90;;;10.15;;
76574;SDS011;65439;50.948;6.988;2023-02-15T10:26:16;13.93;;;8.77;;
76574;SDS011;65439;50.948;6.988;2023-02-15T10:37:23;17.10;;;9.90;;
76574;SDS011;65439;50.948;6.988;2023-02-15T10:48:01;17.33;;;10.48;;
76574;SDS011;65439;50.948;6.988;2023-02-15T10:50:55;14.98;;;9.07;;
76574;SDS011;65439;50.948;6.988;2023-02-15T10:53:28;19.13;;;11.85;;
76574;SDS011;65439;50.948;6.988;2023-02-15T11:06:34;16.48;;;9.55;;
76574;SDS011;65439;50.948;6.988;2023-02-15T11:09:03;17.80;;;11.15;;
76574;SDS011;65439;50.948;6.988;2023-02-15T11:11:35;20.63;;;10.27;;
76574;SDS011;65439;50.948;6.988;2023-02-15T11:14:15;15.55;;;9.57;;
76574;SDS011;65439;50.948;6.988;2023-02-15T11:16:44;17.80;;;11.73;;
76574;SDS011;65439;50.948;6.988;2023-02-15T11:19:27;16.75;;;10.50;;
76574;SDS011;65439;50.948;6.988;2023-02-15T11:22:00;15.77;;;9.40;;
76574;SDS011;65439;50.948;6.988;2023-02-15T11:24:28;12.45;;;9.30;;
76574;SDS011;65439;50.948;6.988;2023-02-15T11:27:40;18.40;;;10.73;;
76574;SDS011;65439;50.948;6.988;2023-02-15T11:29:52;16.40;;;10.52;;
76574;SDS011;65439;50.948;6.988;2023-02-15T11:32:24;14.25;;;8.85;;
76574;SDS011;65439;50.948;6.988;2023-02-15T11:34:58;20.10;;;10.30;;
76574;SDS011;65439;50.948;6.988;2023-02-15T11:37:27;19.58;;;10.90;;
76574;SDS011;65439;50.948;6.988;2023-02-15T11:39:57;15.60;;;9.98;;
76574;SDS011;65439;50.948;6.988;2023-02-15T11:42:23;19.75;;;10.43;;
76574;SDS011;65439;50.948;6.988;2023-02-15T11:47:26;14.50;;;8.90;;
76574;SDS011;65439;50.948;6.988;2023-02-15T11:49:52;12.48;;;8.95;;
76574;SDS011;65439;50.948;6.988;2023-02-15T11:52:17;14.93;;;9.43;;
76574;SDS011;65439;50.948;6.988;2023-02-15T11:54:44;14.52;;;9.57;;
76574;SDS011;65439;50.948;6.988;2023-02-15T11:57:17;15.45;;;10.43;;
76574;SDS011;65439;50.948;6.988;2023-02-15T11:59:55;14.30;;;9.65;;
76574;SDS011;65439;50.948;6.988;2023-02-15T12:02:23;14.70;;;9.40;;
76574;SDS011;65439;50.948;6.988;2023-02-15T12:04:54;14.65;;;10.20;;
76574;SDS011;65439;50.948;6.988;2023-02-15T12:07:26;19.30;;;10.98;;
76574;SDS011;65439;50.948;6.988;2023-02-15T12:10:04;14.60;;;8.82;;
76574;SDS011;65439;50.948;6.988;2023-02-15T12:13:08;16.77;;;10.93;;
76574;SDS011;65439;50.948;6.988;2023-02-15T12:15:36;18.15;;;10.85;;
76574;SDS011;65439;50.948;6.988;2023-02-15T12:18:02;17.73;;;9.90;;
76574;SDS011;65439;50.948;6.988;2023-02-15T12:20:29;17.90;;;10.30;;
76574;SDS011;65439;50.948;6.988;2023-02-15T12:23:00;17.00;;;8.88;;
76574;SDS011;65439;50.948;6.988;2023-02-15T12:31:07;16.15;;;9.77;;
76574;SDS011;65439;50.948;6.988;2023-02-15T12:33:44;15.68;;;9.80;;
76574;SDS011;65439;50.948;6.988;2023-02-15T12:36:11;17.85;;;10.10;;
76574;SDS011;65439;50.948;6.988;2023-02-15T12:38:43;18.08;;;9.75;;
76574;SDS011;65439;50.948;6.988;2023-02-15T12:41:22;13.50;;;9.23;;
76574;SDS011;65439;50.948;6.988;2023-02-15T12:44:02;16.23;;;9.10;;
76574;SDS011;65439;50.948;6.988;2023-02-15T12:46:30;15.27;;;9.52;;
76574;SDS011;65439;50.948;6.988;2023-02-15T12:49:16;14.68;;;9.65;;
76574;SDS011;65439;50.948;6.988;2023-02-15T12:52:28;15.95;;;10.50;;
76574;SDS011;65439;50.948;6.988;2023-02-15T12:54:45;13.55;;;8.93;;
76574;SDS011;65439;50.948;6.988;2023-02-15T12:57:33;17.67;;;10.50;;
76574;SDS011;65439;50.948;6.988;2023-02-15T13:00:31;14.25;;;8.30;;
76574;SDS011;65439;50.948;6.988;2023-02-15T13:02:52;14.40;;;10.93;;
76574;SDS011;65439;50.948;6.988;2023-02-15T13:07:45;16.77;;;9.93;;
76574;SDS011;65439;50.948;6.988;2023-02-15T13:10:27;17.05;;;9.48;;
76574;SDS011;65439;50.948;6.988;2023-02-15T13:12:54;16.48;;;9.95;;
76574;SDS011;65439;50.948;6.988;2023-02-15T13:15:36;14.75;;;9.90;;
76574;SDS011;65439;50.948;6.988;2023-02-15T13:18:03;17.65;;;9.45;;
76574;SDS011;65439;50.948;6.988;2023-02-15T13:20:30;15.68;;;10.00;;
76574;SDS011;65439;50.948;6.988;2023-02-15T13:22:58;14.95;;;9.85;;
76574;SDS011;65439;50.948;6.988;2023-02-15T13:25:31;14.60;;;10.05;;
76574;SDS011;65439;50.948;6.988;2023-02-15T13:28:00;18.92;;;9.45;;
76574;SDS011;65439;50.948;6.988;2023-02-15T13:33:09;20.65;;;9.95;;
76574;SDS011;65439;50.948;6.988;2023-02-15T13:35:42;18.65;;;11.35;;
76574;SDS011;65439;50.948;6.988;2023-02-15T13:38:20;15.02;;;9.25;;
76574;SDS011;65439;50.948;6.988;2023-02-15T13:41:04;15.98;;;9.95;;
76574;SDS011;65439;50.948;6.988;2023-02-15T13:43:54;16.35;;;10.20;;
76574;SDS011;65439;50.948;6.988;2023-02-15T13:47:04;14.57;;;9.02;;
76574;SDS011;65439;50.948;6.988;2023-02-15T13:49:35;20.88;;;10.48;;
76574;SDS011;65439;50.948;6.988;2023-02-15T13:57:40;15.45;;;10.35;;
76574;SDS011;65439;50.948;6.988;2023-02-15T14:03:07;17.90;;;10.88;;
76574;SDS011;65439;50.948;6.988;2023-02-15T14:11:53;16.25;;;10.10;;
76574;SDS011;65439;50.948;6.988;2023-02-15T14:20:24;14.00;;;9.63;;
76574;SDS011;65439;50.948;6.988;2023-02-15T14:28:55;18.52;;;9.95;;
76574;SDS011;65439;50.948;6.988;2023-02-15T14:31:38;19.13;;;10.30;;
76574;SDS011;65439;50.948;6.988;2023-02-15T14:34:08;14.68;;;10.10;;
76574;SDS011;65439;50.948;6.988;2023-02-15T14:36:47;18.00;;;10.13;;
76574;SDS011;65439;50.948;6.988;2023-02-15T14:39:29;17.33;;;10.25;;
76574;SDS011;65439;50.948;6.988;2023-02-15T14:45:15;17.52;;;9.70;;
76574;SDS011;65439;50.948;6.988;2023-02-15T14:47:45;16.55;;;10.70;;
76574;SDS011;65439;50.948;6.988;2023-02-15T14:58:35;18.17;;;11.48;;
76574;SDS011;65439;50.948;6.988;2023-02-15T15:01:04;20.08;;;11.77;;
76574;SDS011;65439;50.948;6.988;2023-02-15T15:03:34;17.92;;;9.98;;
76574;SDS011;65439;50.948;6.988;2023-02-15T15:06:03;14.77;;;10.73;;
76574;SDS011;65439;50.948;6.988;2023-02-15T15:11:46;23.98;;;11.70;;
76574;SDS011;65439;50.948;6.988;2023-02-15T15:13:53;15.90;;;10.02;;
76574;SDS011;65439;50.948;6.988;2023-02-15T15:16:25;14.88;;;9.55;;
76574;SDS011;65439;50.948;6.988;2023-02-15T15:19:01;15.73;;;10.85;;
76574;SDS011;65439;50.948;6.988;2023-02-15T15:25:02;17.00;;;10.35;;
76574;SDS011;65439;50.948;6.988;2023-02-15T15:49:21;17.15;;;11.18;;
76574;SDS011;65439;50.948;6.988;2023-02-15T15:51:49;14.48;;;9.80;;
76574;SDS011;65439;50.948;6.988;2023-02-15T15:54:16;19.35;;;12.15;;
76574;SDS011;65439;50.948;6.988;2023-02-15T15:56:44;17.33;;;10.90;;
76574;SDS011;65439;50.948;6.988;2023-02-15T15:59:24;18.40;;;11.25;;
76574;SDS011;65439;50.948;6.988;2023-02-15T16:01:50;17.63;;;10.02;;
76574;SDS011;65439;50.948;6.988;2023-02-15T16:04:29;16.23;;;11.30;;
76574;SDS011;65439;50.948;6.988;2023-02-15T16:07:41;17.20;;;10.98;;
76574;SDS011;65439;50.948;6.988;2023-02-15T16:09:53;16.70;;;11.68;;
76574;SDS011;65439;50.948;6.988;2023-02-15T16:12:18;16.00;;;10.48;;
76574;SDS011;65439;50.948;6.988;2023-02-15T16:14:44;15.50;;;10.73;;
76574;SDS011;65439;50.948;6.988;2023-02-15T16:17:17;20.38;;;12.02;;
76574;SDS011;65439;50.948;6.988;2023-02-15T16:19:45;18.73;;;11.32;;
76574;SDS011;65439;50.948;6.988;2023-02-15T16:22:12;19.50;;;11.43;;
76574;SDS011;65439;50.948;6.988;2023-02-15T16:24:47;19.48;;;10.80;;
76574;SDS011;65439;50.948;6.988;2023-02-15T16:27:41;18.88;;;11.43;;
76574;SDS011;65439;50.948;6.988;2023-02-15T16:32:45;17.50;;;9.93;;
76574;SDS011;65439;50.948;6.988;2023-02-15T16:35:15;22.85;;;11.48;;
76574;SDS011;65439;50.948;6.988;2023-02-15T16:37:42;16.70;;;10.77;;
76574;SDS011;65439;50.948;6.988;2023-02-15T16:42:52;28.13;;;16.70;;
76574;SDS011;65439;50.948;6.988;2023-02-15T16:45:20;16.00;;;11.00;;
76574;SDS011;65439;50.948;6.988;2023-02-15T16:47:49;23.73;;;13.50;;
76574;SDS011;65439;50.948;6.988;2023-02-15T16:50:20;18.20;;;11.43;;
76574;SDS011;65439;50.948;6.988;2023-02-15T16:52:48;17.08;;;11.32;;
76574;SDS011;65439;50.948;6.988;2023-02-15T16:55:20;21.05;;;13.25;;
76574;SDS011;65439;50.948;6.988;2023-02-15T16:57:47;15.50;;;10.10;;
76574;SDS011;65439;50.948;6.988;2023-02-15T17:00:19;23.45;;;13.13;;
76574;SDS011;65439;50.948;6.988;2023-02-15T17:03:32;20.02;;;11.35;;
76574;SDS011;65439;50.948;6.988;2023-02-15T17:05:42;17.25;;;11.40;;
76574;SDS011;65439;50.948;6.988;2023-02-15T17:08:32;20.20;;;11.70;;
76574;SDS011;65439;50.948;6.988;2023-02-15T17:13:34;19.38;;;11.38;;
76574;SDS011;65439;50.948;6.988;2023-02-15T17:18:29;19.93;;;11.17;;
76574;SDS011;65439;50.948;6.988;2023-02-15T17:21:08;20.02;;;12.30;;
76574;SDS011;65439;50.948;6.988;2023-02-15T17:23:45;17.88;;;11.73;;
76574;SDS011;65439;50.948;6.988;2023-02-15T17:28:49;18.90;;;11.90;;
76574;SDS011;65439;50.948;6.988;2023-02-15T17:31:16;22.63;;;12.00;;
76574;SDS011;65439;50.948;6.988;2023-02-15T17:33:42;22.13;;;12.13;;
76574;SDS011;65439;50.948;6.988;2023-02-15T17:36:12;20.80;;;11.70;;
76574;SDS011;65439;50.948;6.988;2023-02-15T17:38:58;21.10;;;10.93;;
76574;SDS011;65439;50.948;6.988;2023-02-15T17:41:42;16.55;;;11.48;;